Time;durP1;ratioP1;P1;durP2;ratioP2;P2;SDS_P1;SDS_P2;PMS_P1;PMS_P2;Temp;Humidity;BMP_temperature;BMP_pressure;BME280_temperature;BME280_humidity;BME280_pressure;Samples;Min_cycle;Max_cycle;Signal;HPM_P1;HPM_P2
2023/01/16 00:01:27;;;;;;;1.23;1.05;;;;;;;;;;5153894;27;20230;-88
2023/01/16 00:03:55;;;;;;;0.93;0.88;;;;;;;;;;5153899;27;20267;-88
2023/01/16 00:06:23;;;;;;;2.15;0.90;;;;;;;;;;5154150;27;20217;-88
2023/01/16 00:08:50;;;;;;;2.03;1.00;;;;;;;;;;5153907;27;20292;-88
2023/01/16 00:11:19;;;;;;;1.00;1.00;;;;;;;;;;5153773;27;20658;-88
2023/01/16 00:13:47;;;;;;;2.00;1.30;;;;;;;;;;5153534;27;20272;-87
2023/01/16 00:16:14;;;;;;;1.50;0.90;;;;;;;;;;5153999;27;20226;-88
2023/01/16 00:18:42;;;;;;;2.50;1.45;;;;;;;;;;5153633;27;20239;-88
2023/01/16 00:21:10;;;;;;;2.78;0.98;;;;;;;;;;5156331;27;20651;-87
2023/01/16 00:23:38;;;;;;;1.73;1.00;;;;;;;;;;5157803;27;20218;-88
2023/01/16 00:26:08;;;;;;;0.82;0.82;;;;;;;;;;5157675;27;20202;-88
2023/01/16 00:28:37;;;;;;;1.45;1.25;;;;;;;;;;5158031;27;20192;-89
2023/01/16 00:31:05;;;;;;;1.30;1.20;;;;;;;;;;5139446;27;20195;-88
2023/01/16 00:33:33;;;;;;;1.80;1.10;;;;;;;;;;5157741;27;20236;-88
2023/01/16 00:36:02;;;;;;;0.85;0.85;;;;;;;;;;5157543;27;20285;-87
2023/01/16 00:38:29;;;;;;;1.35;1.25;;;;;;;;;;5157592;27;20657;-88
2023/01/16 00:40:57;;;;;;;0.88;0.88;;;;;;;;;;5157353;27;20244;-87
2023/01/16 00:43:24;;;;;;;1.55;0.90;;;;;;;;;;5157596;27;20723;-88
2023/01/16 00:45:54;;;;;;;2.15;1.27;;;;;;;;;;5157432;27;20289;-88
2023/01/16 00:48:21;;;;;;;2.03;1.33;;;;;;;;;;5157609;27;20190;-88
2023/01/16 00:50:49;;;;;;;0.80;0.80;;;;;;;;;;5156760;27;20254;-88
2023/01/16 00:53:16;;;;;;;1.27;1.08;;;;;;;;;;5156896;27;20230;-88
2023/01/16 00:55:44;;;;;;;9.70;1.63;;;;;;;;;;5156872;27;20226;-90
2023/01/16 00:58:12;;;;;;;0.90;0.80;;;;;;;;;;5157021;27;20221;-90
2023/01/16 01:00:40;;;;;;;1.00;0.68;;;;;;;;;;5156257;27;20277;-90
2023/01/16 01:03:09;;;;;;;0.60;0.60;;;;;;;;;;5157367;27;20419;-89
2023/01/16 01:05:38;;;;;;;0.80;0.80;;;;;;;;;;5156978;27;20190;-89
2023/01/16 01:08:06;;;;;;;0.90;0.90;;;;;;;;;;5157575;27;20931;-88
2023/01/16 01:10:36;;;;;;;1.10;1.00;;;;;;;;;;5157132;27;20655;-88
2023/01/16 01:13:04;;;;;;;1.88;1.00;;;;;;;;;;5157064;27;20194;-88
2023/01/16 01:15:32;;;;;;;0.80;0.80;;;;;;;;;;5156979;27;20229;-88
2023/01/16 01:17:59;;;;;;;1.55;1.20;;;;;;;;;;5156940;27;20233;-87
2023/01/16 01:20:28;;;;;;;0.85;0.85;;;;;;;;;;5156926;27;20269;-87
2023/01/16 01:22:56;;;;;;;0.90;0.90;;;;;;;;;;5156819;27;20186;-88
2023/01/16 01:25:24;;;;;;;1.67;1.20;;;;;;;;;;5156625;27;20646;-89
2023/01/16 01:27:52;;;;;;;0.70;0.70;;;;;;;;;;5156516;27;20190;-88
2023/01/16 01:30:20;;;;;;;1.92;1.45;;;;;;;;;;5144043;27;20235;-88
2023/01/16 01:32:47;;;;;;;1.73;0.90;;;;;;;;;;5136151;27;20217;-88
2023/01/16 01:35:17;;;;;;;1.45;1.10;;;;;;;;;;5135754;27;20243;-89
2023/01/16 01:37:46;;;;;;;0.90;0.90;;;;;;;;;;5135568;27;20561;-88
2023/01/16 01:40:13;;;;;;;0.80;0.80;;;;;;;;;;5135270;27;20251;-88
2023/01/16 01:42:51;;;;;;;3.42;1.10;;;;;;;;;;5135523;27;20234;-89
2023/01/16 01:45:22;;;;;;;1.00;0.80;;;;;;;;;;5135826;27;20297;-88
2023/01/16 01:47:56;;;;;;;2.65;1.13;;;;;;;;;;5136290;27;20912;-87
2023/01/16 01:50:34;;;;;;;1.02;1.00;;;;;;;;;;5135928;27;20612;-87
2023/01/16 01:53:07;;;;;;;1.23;0.93;;;;;;;;;;5135210;27;20187;-87
2023/01/16 01:55:34;;;;;;;1.00;1.00;;;;;;;;;;5135745;27;20302;-88
2023/01/16 01:58:04;;;;;;;0.90;0.90;;;;;;;;;;5135429;27;20277;-88
2023/01/16 02:00:31;;;;;;;4.07;1.30;;;;;;;;;;5135072;27;20219;-88
2023/01/16 02:03:13;;;;;;;1.45;1.02;;;;;;;;;;5135001;27;20289;-87
2023/01/16 02:05:44;;;;;;;1.00;1.00;;;;;;;;;;5134976;27;20207;-88
2023/01/16 02:08:15;;;;;;;0.88;0.88;;;;;;;;;;5135292;27;20779;-87
2023/01/16 02:10:46;;;;;;;2.85;1.00;;;;;;;;;;5134849;27;20232;-87
2023/01/16 02:13:14;;;;;;;1.80;1.20;;;;;;;;;;5134890;27;20251;-87
2023/01/16 02:19:15;;;;;;;2.72;1.10;;;;;;;;;;5134694;27;20248;-88
2023/01/16 02:21:35;;;;;;;2.95;2.30;;;;;;;;;;5134635;27;20322;-88
2023/01/16 02:24:37;;;;;;;2.47;1.08;;;;;;;;;;5134645;27;20218;-88
2023/01/16 02:27:29;;;;;;;2.22;1.40;;;;;;;;;;5093278;27;20617;-88
2023/01/16 02:31:02;;;;;;;1.27;1.17;;;;;;;;;;5134285;27;20218;-88
2023/01/16 02:33:43;;;;;;;0.73;0.73;;;;;;;;;;5061812;27;20297;-88
2023/01/16 02:36:17;;;;;;;1.00;1.00;;;;;;;;;;5134650;27;20214;-88
2023/01/16 02:38:51;;;;;;;1.73;1.02;;;;;;;;;;5134706;27;20237;-87
2023/01/16 02:41:27;;;;;;;2.80;1.17;;;;;;;;;;5134274;27;20623;-88
2023/01/16 02:44:03;;;;;;;0.80;0.80;;;;;;;;;;5133770;27;20741;-88
2023/01/16 02:46:35;;;;;;;2.75;1.20;;;;;;;;;;5134777;27;20216;-88
2023/01/16 02:49:09;;;;;;;1.08;1.02;;;;;;;;;;5134199;27;20226;-87
2023/01/16 02:51:46;;;;;;;1.85;1.23;;;;;;;;;;5134505;27;20589;-88
2023/01/16 02:54:18;;;;;;;0.88;0.85;;;;;;;;;;5134436;27;20226;-88
2023/01/16 02:56:48;;;;;;;2.17;1.10;;;;;;;;;;5134374;27;20278;-88
2023/01/16 02:59:16;;;;;;;1.48;1.10;;;;;;;;;;5133393;27;20190;-89
2023/01/16 03:01:46;;;;;;;1.95;1.30;;;;;;;;;;5133973;27;20243;-88
2023/01/16 03:04:45;;;;;;;1.13;1.08;;;;;;;;;;5135219;27;20561;-87
2023/01/16 03:07:56;;;;;;;2.17;1.35;;;;;;;;;;5134301;27;20839;-88
2023/01/16 03:10:53;;;;;;;2.55;1.10;;;;;;;;;;5120584;27;20249;-87
2023/01/16 03:13:34;;;;;;;0.90;0.90;;;;;;;;;;5134342;27;20238;-88
2023/01/16 03:16:08;;;;;;;1.48;0.85;;;;;;;;;;5133861;28;20214;-88
2023/01/16 03:18:42;;;;;;;1.10;1.02;;;;;;;;;;5133811;28;20188;-87
2023/01/16 03:21:15;;;;;;;1.17;0.90;;;;;;;;;;5133930;28;20191;-87
2023/01/16 03:23:53;;;;;;;0.80;0.80;;;;;;;;;;5133612;28;20259;-87
2023/01/16 03:26:29;;;;;;;0.68;0.68;;;;;;;;;;5134020;28;20219;-88
2023/01/16 03:29:08;;;;;;;1.00;0.90;;;;;;;;;;5133937;28;20210;-88
2023/01/16 03:31:42;;;;;;;1.73;1.52;;;;;;;;;;5133660;28;20931;-88
2023/01/16 03:34:20;;;;;;;1.02;0.88;;;;;;;;;;5133850;28;20215;-88
2023/01/16 03:36:54;;;;;;;2.42;1.15;;;;;;;;;;5133807;28;20282;-87
2023/01/16 03:39:33;;;;;;;0.88;0.88;;;;;;;;;;5133779;28;20226;-89
2023/01/16 03:42:05;;;;;;;0.90;0.90;;;;;;;;;;5134270;28;20286;-88
2023/01/16 03:44:40;;;;;;;0.90;0.90;;;;;;;;;;5133923;28;20215;-87
2023/01/16 03:47:11;;;;;;;1.48;0.80;;;;;;;;;;5134696;28;20233;-88
2023/01/16 03:49:43;;;;;;;1.73;0.95;;;;;;;;;;5133307;28;20647;-88
2023/01/16 03:52:15;;;;;;;1.40;1.00;;;;;;;;;;5133407;28;20233;-88
2023/01/16 03:54:49;;;;;;;3.63;1.45;;;;;;;;;;5133232;27;20218;-88
2023/01/16 03:57:20;;;;;;;1.23;1.08;;;;;;;;;;5137288;27;20552;-87
2023/01/16 03:59:48;;;;;;;1.40;1.10;;;;;;;;;;5136267;27;20196;-88
2023/01/16 04:02:21;;;;;;;1.10;1.00;;;;;;;;;;5137441;27;20305;-88
2023/01/16 04:04:52;;;;;;;1.00;0.95;;;;;;;;;;5137234;27;20309;-87
2023/01/16 04:07:27;;;;;;;1.15;0.90;;;;;;;;;;5137484;27;20228;-88
2023/01/16 04:09:57;;;;;;;1.25;1.15;;;;;;;;;;5136960;27;20179;-87
2023/01/16 04:12:28;;;;;;;1.60;1.10;;;;;;;;;;5136749;27;20723;-87
2023/01/16 04:14:59;;;;;;;1.00;1.00;;;;;;;;;;5136947;27;20210;-88
2023/01/16 04:17:27;;;;;;;0.90;0.90;;;;;;;;;;5137444;27;20183;-88
2023/01/16 04:19:55;;;;;;;1.55;1.10;;;;;;;;;;5136263;27;20241;-88
2023/01/16 04:22:26;;;;;;;1.02;0.77;;;;;;;;;;5136805;27;20278;-88
2023/01/16 04:24:56;;;;;;;0.88;0.82;;;;;;;;;;5136793;27;20773;-88
2023/01/16 04:27:24;;;;;;;1.15;1.05;;;;;;;;;;5136984;27;20265;-89
2023/01/16 04:29:52;;;;;;;1.23;1.13;;;;;;;;;;5145349;27;20226;-88
2023/01/16 04:32:20;;;;;;;1.40;0.98;;;;;;;;;;5157603;27;20226;-88
2023/01/16 04:34:49;;;;;;;1.60;1.50;;;;;;;;;;5157388;27;20318;-88
2023/01/16 04:37:18;;;;;;;1.20;1.10;;;;;;;;;;5157430;27;20285;-88
2023/01/16 04:39:47;;;;;;;1.38;1.20;;;;;;;;;;5157202;27;20733;-87
2023/01/16 04:42:15;;;;;;;1.92;1.05;;;;;;;;;;5157858;27;20229;-88
2023/01/16 04:44:42;;;;;;;3.08;1.08;;;;;;;;;;5157005;27;20687;-88
2023/01/16 04:47:10;;;;;;;2.33;1.17;;;;;;;;;;5157057;27;20881;-88
2023/01/16 04:49:38;;;;;;;1.13;0.93;;;;;;;;;;5156898;27;20319;-88
2023/01/16 04:52:05;;;;;;;0.90;0.90;;;;;;;;;;5157009;27;20383;-87
2023/01/16 04:54:33;;;;;;;1.05;1.05;;;;;;;;;;5157049;27;20214;-88
2023/01/16 04:57:02;;;;;;;2.15;1.27;;;;;;;;;;5155961;27;20281;-88
2023/01/16 04:59:30;;;;;;;2.35;1.63;;;;;;;;;;5150035;27;20234;-88
2023/01/16 05:01:58;;;;;;;1.08;1.00;;;;;;;;;;5136329;27;20248;-88
2023/01/16 05:04:25;;;;;;;1.58;1.48;;;;;;;;;;5136557;27;20219;-87
2023/01/16 05:06:53;;;;;;;1.52;1.42;;;;;;;;;;5136123;27;20231;-88
2023/01/16 05:09:20;;;;;;;1.25;1.15;;;;;;;;;;5136007;27;20281;-88
2023/01/16 05:11:48;;;;;;;1.20;1.10;;;;;;;;;;5135770;27;20237;-88
2023/01/16 05:14:17;;;;;;;1.92;1.40;;;;;;;;;;5135464;27;20222;-87
2023/01/16 05:16:44;;;;;;;1.52;1.25;;;;;;;;;;5135779;27;20301;-88
2023/01/16 05:19:12;;;;;;;1.85;1.38;;;;;;;;;;5135598;27;20694;-87
2023/01/16 05:21:40;;;;;;;1.45;1.10;;;;;;;;;;5135861;27;20187;-88
2023/01/16 05:24:08;;;;;;;1.90;1.05;;;;;;;;;;5135940;27;20683;-87
2023/01/16 05:26:35;;;;;;;2.72;0.88;;;;;;;;;;5135854;27;20643;-88
2023/01/16 05:29:03;;;;;;;1.77;1.50;;;;;;;;;;5137424;27;20229;-88
2023/01/16 05:31:32;;;;;;;1.55;0.98;;;;;;;;;;5156257;27;20187;-87
2023/01/16 05:33:59;;;;;;;1.08;1.00;;;;;;;;;;5155824;27;20306;-89
2023/01/16 05:36:27;;;;;;;0.70;0.70;;;;;;;;;;5156304;27;20256;-87
2023/01/16 05:38:55;;;;;;;0.80;0.80;;;;;;;;;;5155763;27;20605;-86
2023/01/16 05:41:23;;;;;;;1.55;1.30;;;;;;;;;;5156023;27;20186;-88
2023/01/16 05:43:50;;;;;;;0.85;0.85;;;;;;;;;;5155930;27;20222;-88
2023/01/16 05:46:18;;;;;;;1.00;1.00;;;;;;;;;;5156296;27;20624;-88
2023/01/16 05:48:47;;;;;;;1.75;1.38;;;;;;;;;;5156153;27;20705;-87
2023/01/16 05:51:15;;;;;;;1.85;1.08;;;;;;;;;;5156123;27;20226;-88
2023/01/16 05:53:54;;;;;;;3.08;1.15;;;;;;;;;;5155889;27;20250;-88
2023/01/16 05:56:23;;;;;;;1.15;0.98;;;;;;;;;;5155710;27;20182;-88
2023/01/16 05:58:51;;;;;;;0.80;0.80;;;;;;;;;;5155423;27;20221;-88
2023/01/16 06:01:18;;;;;;;1.73;1.00;;;;;;;;;;5135126;27;20222;-88
2023/01/16 06:03:47;;;;;;;1.05;1.05;;;;;;;;;;5134704;27;20310;-88
2023/01/16 06:06:15;;;;;;;1.10;0.90;;;;;;;;;;5134983;27;20225;-88
2023/01/16 06:08:49;;;;;;;0.80;0.80;;;;;;;;;;5134880;27;20282;-87
2023/01/16 06:11:18;;;;;;;3.97;1.10;;;;;;;;;;5134727;27;20235;-88
2023/01/16 06:13:49;;;;;;;2.10;1.02;;;;;;;;;;5134650;27;20233;-88
2023/01/16 06:16:19;;;;;;;2.05;1.17;;;;;;;;;;5134996;27;20263;-88
2023/01/16 06:18:48;;;;;;;1.17;0.90;;;;;;;;;;5133950;27;20232;-88
2023/01/16 06:21:16;;;;;;;6.60;2.40;;;;;;;;;;5135026;27;20196;-88
2023/01/16 06:23:43;;;;;;;1.20;1.10;;;;;;;;;;5134662;27;20251;-87
2023/01/16 06:26:11;;;;;;;0.88;0.88;;;;;;;;;;5135120;27;20285;-88
2023/01/16 06:28:39;;;;;;;1.65;1.55;;;;;;;;;;5134555;27;20818;-88
2023/01/16 06:31:07;;;;;;;0.73;0.73;;;;;;;;;;5173144;27;20197;-88
2023/01/16 06:33:35;;;;;;;1.10;1.00;;;;;;;;;;5176076;27;20262;-88
2023/01/16 06:36:17;;;;;;;1.75;1.13;;;;;;;;;;5161628;27;20194;-86
2023/01/16 06:38:47;;;;;;;0.88;0.88;;;;;;;;;;5154458;27;20277;-88
2023/01/16 06:41:15;;;;;;;1.88;1.20;;;;;;;;;;5154814;27;20221;-88
2023/01/16 06:43:42;;;;;;;1.17;1.08;;;;;;;;;;5154650;27;20350;-88
2023/01/16 06:46:10;;;;;;;1.73;0.90;;;;;;;;;;5154842;27;20609;-87
2023/01/16 06:48:37;;;;;;;1.27;1.17;;;;;;;;;;5153508;27;20276;-89
2023/01/16 06:51:05;;;;;;;1.20;1.10;;;;;;;;;;5154536;27;20281;-87
2023/01/16 06:53:35;;;;;;;0.90;0.82;;;;;;;;;;5154494;27;20312;-88
2023/01/16 06:56:05;;;;;;;0.80;0.80;;;;;;;;;;5154570;27;20266;-89
2023/01/16 06:58:33;;;;;;;0.85;0.85;;;;;;;;;;5154372;27;20221;-89
2023/01/16 07:01:00;;;;;;;1.48;1.10;;;;;;;;;;5154248;27;20226;-87
2023/01/16 07:03:28;;;;;;;0.68;0.68;;;;;;;;;;5153994;27;20252;-88
2023/01/16 07:05:56;;;;;;;1.17;0.90;;;;;;;;;;5154324;27;20186;-88
2023/01/16 07:08:23;;;;;;;0.80;0.80;;;;;;;;;;5154389;27;20285;-88
2023/01/16 07:10:52;;;;;;;1.05;1.05;;;;;;;;;;5154779;27;20237;-88
2023/01/16 07:13:26;;;;;;;1.15;1.05;;;;;;;;;;5153864;27;20300;-87
2023/01/16 07:24:15;;;;;;;1.30;1.08;;;;;;;;;;5154103;27;20295;-89
2023/01/16 07:26:47;;;;;;;0.70;0.70;;;;;;;;;;5154118;27;20178;-88
2023/01/16 07:29:14;;;;;;;1.02;0.80;;;;;;;;;;5155143;27;20182;-88
2023/01/16 07:31:42;;;;;;;0.90;0.90;;;;;;;;;;5158510;27;20194;-88
2023/01/16 07:34:12;;;;;;;0.77;0.77;;;;;;;;;;5158213;27;20650;-88
2023/01/16 07:36:42;;;;;;;1.90;0.90;;;;;;;;;;5158628;27;20293;-88
2023/01/16 07:39:09;;;;;;;0.77;0.77;;;;;;;;;;5158274;27;20655;-88
2023/01/16 07:41:37;;;;;;;1.35;1.25;;;;;;;;;;5158178;27;20221;-88
2023/01/16 07:44:09;;;;;;;1.60;1.10;;;;;;;;;;5158169;27;20257;-88
2023/01/16 07:46:37;;;;;;;2.88;1.30;;;;;;;;;;5158111;27;20190;-87
2023/01/16 07:49:07;;;;;;;1.55;1.45;;;;;;;;;;5157809;27;20281;-88
2023/01/16 07:51:38;;;;;;;0.90;0.90;;;;;;;;;;5158069;27;20556;-88
2023/01/16 07:54:07;;;;;;;0.82;0.82;;;;;;;;;;5157917;27;20298;-87
2023/01/16 07:56:37;;;;;;;1.85;1.13;;;;;;;;;;5157965;27;20218;-88
2023/01/16 07:59:09;;;;;;;1.27;1.00;;;;;;;;;;5159608;27;20183;-89
2023/01/16 08:01:39;;;;;;;1.73;1.05;;;;;;;;;;5178879;27;20190;-88
2023/01/16 08:04:07;;;;;;;1.23;1.10;;;;;;;;;;5178674;27;20227;-87
2023/01/16 08:06:44;;;;;;;1.10;1.00;;;;;;;;;;5178771;27;20246;-87
2023/01/16 08:09:12;;;;;;;3.15;1.10;;;;;;;;;;5178185;27;20605;-88
2023/01/16 08:11:39;;;;;;;1.67;1.08;;;;;;;;;;5178777;27;20221;-88
2023/01/16 08:14:09;;;;;;;2.35;1.35;;;;;;;;;;5178333;27;20221;-88
2023/01/16 08:16:36;;;;;;;1.70;1.50;;;;;;;;;;5178573;27;20280;-88
2023/01/16 08:19:04;;;;;;;1.67;1.40;;;;;;;;;;5172124;27;20289;-88
2023/01/16 08:21:31;;;;;;;1.08;0.98;;;;;;;;;;5156939;27;20226;-89
2023/01/16 08:23:59;;;;;;;3.28;1.05;;;;;;;;;;5155925;27;20265;-88
2023/01/16 08:26:27;;;;;;;1.45;1.00;;;;;;;;;;5155870;27;20284;-88
2023/01/16 08:28:54;;;;;;;1.50;1.40;;;;;;;;;;5155729;27;20194;-89
2023/01/16 08:31:23;;;;;;;2.72;1.20;;;;;;;;;;5155820;27;20259;-89
2023/01/16 08:33:51;;;;;;;0.90;0.90;;;;;;;;;;5155925;27;20214;-89
2023/01/16 08:36:20;;;;;;;1.67;0.88;;;;;;;;;;5156212;27;20233;-88
2023/01/16 08:38:48;;;;;;;2.60;1.35;;;;;;;;;;5156375;27;20669;-88
2023/01/16 08:52:26;;;;;;;3.15;1.00;;;;;;;;;;5136489;27;20206;-88
2023/01/16 08:54:55;;;;;;;1.77;1.10;;;;;;;;;;5155669;27;20629;-87
2023/01/16 08:57:25;;;;;;;2.53;1.10;;;;;;;;;;5156548;27;20599;-88
2023/01/16 08:59:52;;;;;;;2.63;0.90;;;;;;;;;;5155520;27;20286;-87
2023/01/16 09:02:22;;;;;;;1.42;1.10;;;;;;;;;;5155939;27;20855;-88
2023/01/16 09:04:49;;;;;;;3.85;1.30;;;;;;;;;;5155314;27;20706;-87
2023/01/16 09:07:18;;;;;;;1.30;1.13;;;;;;;;;;5155168;27;20230;-88
2023/01/16 09:09:45;;;;;;;3.17;1.58;;;;;;;;;;5155267;27;20201;-88
2023/01/16 09:14:59;;;;;;;3.42;1.50;;;;;;;;;;5155051;27;20295;-88
2023/01/16 09:17:28;;;;;;;0.90;0.90;;;;;;;;;;5155142;27;20204;-88
2023/01/16 09:19:56;;;;;;;1.17;0.90;;;;;;;;;;5155068;27;20193;-88
2023/01/16 09:22:26;;;;;;;2.10;1.20;;;;;;;;;;5154217;27;20646;-87
2023/01/16 09:25:01;;;;;;;1.50;1.40;;;;;;;;;;5155018;27;20309;-87
2023/01/16 09:27:31;;;;;;;2.25;1.48;;;;;;;;;;5154979;27;20225;-89
2023/01/16 09:29:59;;;;;;;1.33;1.10;;;;;;;;;;5155412;27;20221;-88
2023/01/16 09:32:29;;;;;;;1.10;1.00;;;;;;;;;;5155178;27;20285;-89
2023/01/16 09:34:56;;;;;;;1.30;0.90;;;;;;;;;;5156120;27;20250;-88
2023/01/16 09:37:24;;;;;;;2.67;1.60;;;;;;;;;;5156402;27;20197;-87
2023/01/16 09:39:52;;;;;;;2.33;1.05;;;;;;;;;;5155782;27;20617;-87
2023/01/16 09:45:27;;;;;;;2.33;1.33;;;;;;;;;;5156023;27;20240;-88
2023/01/16 09:48:02;;;;;;;1.27;0.60;;;;;;;;;;5156232;27;20194;-89
2023/01/16 09:50:36;;;;;;;3.10;1.10;;;;;;;;;;5155825;27;20225;-89
2023/01/16 09:58:40;;;;;;;1.70;1.15;;;;;;;;;;5155797;27;20234;-88
2023/01/16 10:01:12;;;;;;;2.40;1.10;;;;;;;;;;5156241;27;20198;-89
2023/01/16 10:03:42;;;;;;;0.80;0.80;;;;;;;;;;5156518;27;20215;-88
2023/01/16 10:06:21;;;;;;;1.00;0.85;;;;;;;;;;5155827;27;20220;-88
2023/01/16 10:09:07;;;;;;;0.85;0.75;;;;;;;;;;5155826;27;20202;-88
2023/01/16 10:11:41;;;;;;;3.22;1.17;;;;;;;;;;5156116;27;20595;-88
2023/01/16 10:14:43;;;;;;;1.00;0.75;;;;;;;;;;5155635;27;20253;-88
2023/01/16 10:17:21;;;;;;;0.98;0.90;;;;;;;;;;5156123;27;20182;-88
2023/01/16 10:20:15;;;;;;;1.42;1.08;;;;;;;;;;5143832;27;20234;-88
2023/01/16 10:23:03;;;;;;;4.88;1.42;;;;;;;;;;5134679;27;20195;-88
2023/01/16 10:25:35;;;;;;;1.75;1.48;;;;;;;;;;5134542;27;20736;-87
2023/01/16 10:28:19;;;;;;;3.33;1.55;;;;;;;;;;5134352;27;20585;-88
2023/01/16 10:30:50;;;;;;;1.48;1.35;;;;;;;;;;5135051;27;20203;-88
2023/01/16 10:33:27;;;;;;;2.50;1.13;;;;;;;;;;5134635;27;20262;-88
2023/01/16 10:35:57;;;;;;;1.35;1.10;;;;;;;;;;5134585;27;20258;-88
2023/01/16 10:38:35;;;;;;;0.88;0.88;;;;;;;;;;5146182;27;20243;-88
2023/01/16 10:49:29;;;;;;;1.10;1.00;;;;;;;;;;5154745;27;20182;-88
2023/01/16 10:52:02;;;;;;;2.30;1.15;;;;;;;;;;5154510;27;20210;-88
2023/01/16 10:54:30;;;;;;;5.03;1.23;;;;;;;;;;5155179;27;20304;-88
2023/01/16 10:57:03;;;;;;;3.65;1.40;;;;;;;;;;5155210;27;20323;-88
2023/01/16 10:59:32;;;;;;;1.88;1.10;;;;;;;;;;5155244;27;20218;-88
2023/01/16 11:02:11;;;;;;;2.13;1.17;;;;;;;;;;5155225;27;20566;-88
2023/01/16 11:04:40;;;;;;;1.77;1.23;;;;;;;;;;5154521;27;20246;-88
2023/01/16 11:07:18;;;;;;;1.88;1.10;;;;;;;;;;5154931;27;20309;-88
2023/01/16 11:09:47;;;;;;;1.30;1.05;;;;;;;;;;5154975;27;20183;-87
2023/01/16 11:18:31;;;;;;;1.20;1.00;;;;;;;;;;5154426;27;20255;-87
2023/01/16 11:21:02;;;;;;;2.35;1.20;;;;;;;;;;5133747;28;20220;-88
2023/01/16 11:23:39;;;;;;;2.90;1.95;;;;;;;;;;5134795;28;20628;-87
2023/01/16 11:26:08;;;;;;;1.77;1.23;;;;;;;;;;5134839;28;20259;-86
2023/01/16 11:28:36;;;;;;;1.20;0.90;;;;;;;;;;5134405;28;20281;-88
2023/01/16 11:31:12;;;;;;;1.25;1.10;;;;;;;;;;5134995;28;20799;-88
2023/01/16 11:33:44;;;;;;;0.70;0.70;;;;;;;;;;5134543;28;20264;-88
2023/01/16 11:36:12;;;;;;;2.95;1.27;;;;;;;;;;5134096;28;20187;-88
2023/01/16 11:38:45;;;;;;;2.25;1.17;;;;;;;;;;5133711;28;20187;-88
2023/01/16 11:41:13;;;;;;;1.77;1.00;;;;;;;;;;5134172;28;20287;-88
2023/01/16 11:46:38;;;;;;;0.82;0.77;;;;;;;;;;5133775;28;20206;-88
2023/01/16 11:49:15;;;;;;;0.80;0.80;;;;;;;;;;5134262;28;20535;-87
2023/01/16 11:51:43;;;;;;;1.10;0.93;;;;;;;;;;5133833;28;20228;-88
2023/01/16 11:54:15;;;;;;;1.10;1.00;;;;;;;;;;5133669;28;20215;-88
2023/01/16 11:56:55;;;;;;;1.10;1.00;;;;;;;;;;5134785;28;20183;-88
2023/01/16 11:59:47;;;;;;;0.75;0.75;;;;;;;;;;5133958;28;20223;-88
2023/01/16 12:02:41;;;;;;;1.45;1.02;;;;;;;;;;5133742;28;20228;-88
2023/01/16 12:08:22;;;;;;;0.85;0.85;;;;;;;;;;5133342;28;20678;-87
2023/01/16 12:11:02;;;;;;;0.80;0.80;;;;;;;;;;5133553;28;20203;-87
2023/01/16 12:16:40;;;;;;;1.83;1.10;;;;;;;;;;5134660;27;20186;-87
2023/01/16 12:19:45;;;;;;;1.55;0.52;;;;;;;;;;5137745;27;20203;-88
2023/01/16 12:22:24;;;;;;;1.20;0.90;;;;;;;;;;5137960;27;20194;-87
2023/01/16 12:25:07;;;;;;;0.73;0.73;;;;;;;;;;5137868;27;20278;-88
2023/01/16 12:27:45;;;;;;;1.13;0.90;;;;;;;;;;5138088;27;20621;-90
2023/01/16 12:30:26;;;;;;;1.17;0.70;;;;;;;;;;5150295;27;20220;-89
2023/01/16 12:33:12;;;;;;;0.77;0.75;;;;;;;;;;5160289;27;20258;-89
2023/01/16 12:36:00;;;;;;;2.22;1.88;;;;;;;;;;5160459;27;20270;-90
2023/01/16 12:38:36;;;;;;;0.70;0.70;;;;;;;;;;5159967;27;20175;-89
2023/01/16 12:44:28;;;;;;;1.13;1.13;;;;;;;;;;5159274;27;20225;-89
2023/01/16 12:47:10;;;;;;;1.02;0.77;;;;;;;;;;5158823;27;20237;-89
2023/01/16 12:49:52;;;;;;;0.70;0.70;;;;;;;;;;5148992;27;20230;-89
2023/01/16 12:52:36;;;;;;;1.35;0.88;;;;;;;;;;5162024;27;20179;-90
2023/01/16 12:55:26;;;;;;;0.95;0.95;;;;;;;;;;5151553;27;20221;-90
2023/01/16 12:58:10;;;;;;;0.75;0.75;;;;;;;;;;5159762;27;20285;-89
2023/01/16 13:00:44;;;;;;;0.88;0.80;;;;;;;;;;5159691;27;20724;-89
2023/01/16 13:03:22;;;;;;;0.80;0.80;;;;;;;;;;5159079;27;20246;-90
2023/01/16 13:05:51;;;;;;;0.77;0.77;;;;;;;;;;5158342;27;20227;-90
2023/01/16 13:08:23;;;;;;;0.90;0.90;;;;;;;;;;5158859;27;20798;-89
2023/01/16 13:13:46;;;;;;;0.90;0.90;;;;;;;;;;5158867;27;20224;-89
2023/01/16 13:16:21;;;;;;;1.08;0.90;;;;;;;;;;5159113;27;20617;-89
2023/01/16 13:18:53;;;;;;;0.65;0.60;;;;;;;;;;5158538;27;20214;-89
2023/01/16 13:21:26;;;;;;;0.80;0.80;;;;;;;;;;5158969;27;20179;-89
2023/01/16 13:23:57;;;;;;;0.60;0.60;;;;;;;;;;5158885;27;20271;-88
2023/01/16 13:26:26;;;;;;;1.08;0.80;;;;;;;;;;5158696;27;20179;-89
2023/01/16 13:29:00;;;;;;;0.75;0.73;;;;;;;;;;5157816;27;21096;-89
2023/01/16 13:31:37;;;;;;;1.25;1.20;;;;;;;;;;5158369;27;20183;-89
2023/01/16 13:34:12;;;;;;;1.13;1.02;;;;;;;;;;5159075;27;20229;-89
2023/01/16 13:37:25;;;;;;;0.77;0.75;;;;;;;;;;5158319;27;20210;-89
2023/01/16 13:40:21;;;;;;;0.80;0.80;;;;;;;;;;5129186;27;20194;-89
2023/01/16 13:42:54;;;;;;;1.20;0.90;;;;;;;;;;5158517;27;20205;-89
2023/01/16 13:45:48;;;;;;;0.82;0.82;;;;;;;;;;5158352;27;20313;-89
2023/01/16 13:48:20;;;;;;;0.73;0.73;;;;;;;;;;5157371;27;20229;-90
2023/01/16 13:50:53;;;;;;;0.95;0.90;;;;;;;;;;5157723;27;20646;-89
2023/01/16 13:53:22;;;;;;;0.77;0.77;;;;;;;;;;5157579;27;20527;-89
2023/01/16 13:55:50;;;;;;;0.70;0.70;;;;;;;;;;5158389;27;20281;-90
2023/01/16 13:58:23;;;;;;;1.02;1.00;;;;;;;;;;5157850;27;20199;-89
2023/01/16 14:00:59;;;;;;;0.77;0.77;;;;;;;;;;5158630;27;20221;-90
2023/01/16 14:03:30;;;;;;;2.50;1.08;;;;;;;;;;5158265;27;20321;-89
2023/01/16 14:06:21;;;;;;;0.80;0.80;;;;;;;;;;5157726;27;20202;-89
2023/01/16 14:09:08;;;;;;;0.77;0.77;;;;;;;;;;5156843;27;20659;-89
2023/01/16 14:11:39;;;;;;;0.80;0.80;;;;;;;;;;5157045;27;20186;-89
2023/01/16 14:18:17;;;;;;;0.65;0.65;;;;;;;;;;5156639;27;20181;-90
2023/01/16 14:20:52;;;;;;;0.73;0.73;;;;;;;;;;5156506;27;20280;-90
2023/01/16 14:26:29;;;;;;;0.90;0.85;;;;;;;;;;5156909;27;20197;-88
2023/01/16 14:28:58;;;;;;;0.60;0.60;;;;;;;;;;5156549;27;20214;-89
2023/01/16 14:31:41;;;;;;;0.75;0.75;;;;;;;;;;5157227;27;20571;-88
2023/01/16 14:34:18;;;;;;;0.75;0.75;;;;;;;;;;5156089;27;20721;-89
2023/01/16 14:36:50;;;;;;;1.05;0.70;;;;;;;;;;5155904;27;20654;-88
2023/01/16 14:39:29;;;;;;;0.80;0.80;;;;;;;;;;5155200;27;20259;-88
2023/01/16 14:57:16;;;;;;;2.35;1.08;;;;;;;;;;5134936;27;20279;-89
2023/01/16 14:59:52;;;;;;;1.08;1.08;;;;;;;;;;5142053;27;20206;-90
2023/01/16 15:02:30;;;;;;;1.05;1.05;;;;;;;;;;5155674;27;20660;-91
2023/01/16 15:05:02;;;;;;;4.00;0.85;;;;;;;;;;5156741;27;20228;-89
2023/01/16 15:07:38;;;;;;;1.00;1.00;;;;;;;;;;5156138;27;20205;-90
2023/01/16 15:10:13;;;;;;;1.60;0.88;;;;;;;;;;5156146;27;20693;-90
2023/01/16 15:12:43;;;;;;;0.82;0.82;;;;;;;;;;5156698;27;20873;-90
2023/01/16 15:15:35;;;;;;;0.60;0.60;;;;;;;;;;5156758;27;20214;-90
2023/01/16 15:51:19;;;;;;;0.90;0.90;;;;;;;;;;4974248;28;20603;-88
2023/01/16 15:54:02;;;;;;;1.10;1.10;;;;;;;;;;4952736;28;20227;-88
2023/01/16 15:57:06;;;;;;;1.05;1.05;;;;;;;;;;5079095;28;20258;-87
2023/01/16 16:00:17;;;;;;;0.80;0.80;;;;;;;;;;5078450;28;20188;-88
2023/01/16 16:06:53;;;;;;;0.80;0.80;;;;;;;;;;5076743;28;20205;-88
2023/01/16 16:13:21;;;;;;;1.48;0.85;;;;;;;;;;5075084;28;20213;-87
2023/01/16 16:19:52;;;;;;;1.35;1.00;;;;;;;;;;5076829;28;20180;-86
2023/01/16 16:25:25;;;;;;;0.77;0.77;;;;;;;;;;5077698;28;20339;-89
2023/01/16 16:28:04;;;;;;;1.48;1.00;;;;;;;;;;5077574;28;20228;-91
2023/01/16 16:30:33;;;;;;;1.75;1.48;;;;;;;;;;5076643;28;20212;-90
2023/01/16 16:33:03;;;;;;;1.02;0.93;;;;;;;;;;5076893;28;20212;-90
2023/01/16 16:35:34;;;;;;;0.80;0.80;;;;;;;;;;5076455;28;20209;-88
2023/01/16 16:38:02;;;;;;;0.82;0.80;;;;;;;;;;5075891;28;20262;-88
2023/01/16 16:40:33;;;;;;;2.38;0.80;;;;;;;;;;5076312;28;20228;-89
2023/01/16 16:43:01;;;;;;;0.90;0.90;;;;;;;;;;5076519;28;20208;-89
2023/01/16 16:45:34;;;;;;;0.88;0.80;;;;;;;;;;5076571;28;20244;-88
2023/01/16 16:48:27;;;;;;;1.00;1.00;;;;;;;;;;5076310;28;20254;-89
2023/01/16 16:51:27;;;;;;;0.90;0.90;;;;;;;;;;5076419;28;20197;-89
2023/01/16 16:54:04;;;;;;;0.70;0.70;;;;;;;;;;5076429;28;20216;-89
2023/01/16 16:56:37;;;;;;;1.20;1.10;;;;;;;;;;5076207;28;20262;-89
2023/01/16 16:59:07;;;;;;;1.23;1.13;;;;;;;;;;5075773;28;20205;-89
2023/01/16 17:01:39;;;;;;;0.80;0.80;;;;;;;;;;5075817;28;20612;-89
2023/01/16 17:04:17;;;;;;;1.13;1.02;;;;;;;;;;5076678;28;20666;-89
2023/01/16 17:06:46;;;;;;;1.25;1.15;;;;;;;;;;5076110;28;20239;-89
2023/01/16 17:09:17;;;;;;;1.02;0.90;;;;;;;;;;5075587;28;20216;-89
2023/01/16 17:11:47;;;;;;;1.00;1.00;;;;;;;;;;5076153;28;20197;-89
2023/01/16 17:14:20;;;;;;;0.80;0.80;;;;;;;;;;5076181;28;20271;-89
2023/01/16 17:16:50;;;;;;;1.05;0.90;;;;;;;;;;5075560;28;20704;-89
2023/01/16 17:19:23;;;;;;;0.90;0.90;;;;;;;;;;5075375;28;20212;-89
2023/01/16 17:21:51;;;;;;;0.95;0.80;;;;;;;;;;5075911;28;20254;-90
2023/01/16 17:24:24;;;;;;;0.82;0.82;;;;;;;;;;5075838;28;20209;-90
2023/01/16 17:26:56;;;;;;;0.95;0.95;;;;;;;;;;5075590;28;20193;-89
2023/01/16 17:29:24;;;;;;;1.10;1.10;;;;;;;;;;5075340;28;20233;-89
2023/01/16 17:31:54;;;;;;;1.02;1.00;;;;;;;;;;5076091;28;20266;-89